Time;durP1;ratioP1;P1;durP2;ratioP2;P2;SDS_P1;SDS_P2;PMS_P1;PMS_P2;Temp;Humidity;BMP_temperature;BMP_pressure;BME280_temperature;BME280_humidity;BME280_pressure;Samples;Min_cycle;Max_cycle;Signal;HPM_P1;HPM_P2
2020/12/03 00:05:35;;;;;;;41.37;30.00;;;;;;;17.51;35.16;100750.03;31619178;28;20035;-55
2020/12/03 00:20:37;;;;;;;37.33;28.52;;;;;;;17.48;36.30;100742.41;31576921;28;20053;-58
2020/12/03 00:35:38;;;;;;;38.42;29.48;;;;;;;17.39;36.73;100730.81;31617226;28;20109;-60
2020/12/03 00:50:39;;;;;;;37.28;28.33;;;;;;;17.28;37.42;100722.94;31614995;28;20447;-59
2020/12/03 01:05:40;;;;;;;37.53;27.48;;;;;;;17.16;37.68;100709.81;31606383;28;20028;-59
2020/12/03 01:20:41;;;;;;;38.08;28.13;;;;;;;17.07;38.24;100688.69;31609441;28;20047;-56
2020/12/03 01:35:42;;;;;;;35.58;26.70;;;;;;;16.98;38.56;100671.03;31612381;28;20036;-57
2020/12/03 01:50:43;;;;;;;36.20;27.35;;;;;;;16.85;39.12;100661.44;31606704;28;20069;-57
2020/12/03 02:05:44;;;;;;;36.50;26.58;;;;;;;16.77;39.21;100619.19;31609000;28;20023;-57
2020/12/03 02:20:45;;;;;;;35.83;26.73;;;;;;;16.69;39.53;100590.06;31604986;28;20048;-57
2020/12/03 02:35:46;;;;;;;35.88;26.48;;;;;;;16.61;39.58;100555.75;31611994;28;20436;-57
2020/12/03 02:50:47;;;;;;;35.83;26.75;;;;;;;16.54;39.94;100535.22;31604904;28;20044;-57
2020/12/03 03:05:48;;;;;;;36.78;26.15;;;;;;;16.48;39.83;100522.56;31620572;28;20027;-57
2020/12/03 03:20:49;;;;;;;34.25;24.35;;;;;;;16.42;40.04;100503.84;31624387;28;20066;-59
2020/12/03 03:35:50;;;;;;;36.10;26.42;;;;;;;16.34;40.11;100505.28;31624404;28;20055;-58
2020/12/03 03:50:51;;;;;;;35.45;24.65;;;;;;;16.32;40.33;100490.63;31617311;28;20036;-58
2020/12/03 04:05:53;;;;;;;31.45;23.48;;;;;;;16.30;40.15;100450.56;31619896;28;20028;-58
2020/12/03 04:20:55;;;;;;;34.03;25.00;;;;;;;16.26;40.07;100438.66;31616172;28;20031;-57
2020/12/03 04:35:56;;;;;;;35.08;25.42;;;;;;;16.21;40.11;100435.56;31617462;28;20460;-58
2020/12/03 04:51:28;;;;;;;35.55;24.92;;;;;;;16.15;40.14;100430.78;31614673;28;20489;-55
2020/12/03 05:06:42;;;;;;;35.80;24.98;;;;;;;16.10;39.94;100407.53;31601697;28;20032;-57
2020/12/03 05:21:43;;;;;;;37.50;26.15;;;;;;;16.06;39.94;100387.78;31616022;28;20210;-56
2020/12/03 05:37:04;;;;;;;35.80;26.00;;;;;;;16.01;39.90;100382.91;31600781;28;20038;-57
2020/12/03 05:52:11;;;;;;;35.45;25.60;;;;;;;16.01;39.92;100371.56;31564083;28;20031;-57
2020/12/03 06:07:42;;;;;;;36.50;26.00;;;;;;;15.94;39.56;100352.84;31614382;28;20085;-59
2020/12/03 06:23:20;;;;;;;36.92;25.13;;;;;;;15.90;39.83;100352.28;31626698;28;20043;-55
2020/12/03 06:38:43;;;;;;;37.53;25.67;;;;;;;15.86;39.59;100348.22;31629351;28;20040;-54
2020/12/03 06:53:56;;;;;;;38.53;26.55;;;;;;;15.82;39.88;100348.59;31664483;28;20081;-57
2020/12/03 07:09:05;;;;;;;54.85;30.35;;;;;;;15.79;40.40;100336.56;31662439;28;20231;-59
2020/12/03 07:24:09;;;;;;;96.57;51.25;;;;;;;11.40;33.45;100322.22;31652693;28;20539;-52
2020/12/03 07:39:20;;;;;;;86.43;48.13;;;;;;;10.93;40.97;100303.31;31631990;28;20074;-54
2020/12/03 07:54:22;;;;;;;76.30;41.47;;;;;;;14.02;40.97;100293.88;31631461;28;20535;-56
2020/12/03 08:09:23;;;;;;;63.53;37.60;;;;;;;15.57;38.36;100274.47;31653677;28;20042;-59
2020/12/03 08:24:26;;;;;;;57.15;35.15;;;;;;;16.50;37.40;100237.34;31652298;28;20023;-59
2020/12/03 08:39:27;;;;;;;52.40;33.92;;;;;;;17.35;36.50;100244.22;31690070;28;20049;-56
2020/12/03 08:54:29;;;;;;;56.20;33.30;;;;;;;17.94;36.02;100237.34;31663080;28;20047;-58
2020/12/03 09:09:30;;;;;;;48.80;31.65;;;;;;;18.21;36.25;100223.53;31661468;28;20473;-58
2020/12/03 09:24:31;;;;;;;47.08;30.95;;;;;;;18.16;36.38;100196.84;31635608;28;20027;-59
2020/12/03 09:39:33;;;;;;;45.63;29.42;;;;;;;17.95;37.73;100169.81;31623309;28;20054;-58
2020/12/03 09:54:34;;;;;;;47.28;28.95;;;;;;;17.91;38.35;100136.88;31598844;28;20032;-56
2020/12/03 10:10:13;;;;;;;42.70;28.77;;;;;;;18.11;37.99;100127.19;31654513;28;20070;-57
2020/12/03 10:25:18;;;;;;;42.03;29.00;;;;;;;18.43;37.61;100082.13;31660725;28;20027;-57
2020/12/03 10:40:19;;;;;;;41.42;27.73;;;;;;;18.54;37.72;100062.72;31652762;28;20466;-60
2020/12/03 10:55:20;;;;;;;39.05;26.20;;;;;;;18.37;38.30;100030.91;31673386;28;20040;-58
2020/12/03 11:10:21;;;;;;;40.97;26.30;;;;;;;18.23;38.38;100010.31;31663541;28;20470;-56
2020/12/03 11:25:25;;;;;;;40.28;28.20;;;;;;;18.18;37.93;99983.63;31647991;28;20027;-57
2020/12/03 11:40:33;;;;;;;36.85;25.15;;;;;;;18.26;36.87;99951.34;31646825;28;20497;-58
2020/12/03 11:55:40;;;;;;;36.08;23.92;;;;;;;18.23;37.61;99944.56;31642940;28;20023;-59
2020/12/03 12:11:11;;;;;;;39.13;24.50;;;;;;;18.21;37.58;99926.31;31640219;28;20024;-52
2020/12/03 12:26:03;;;;;;;36.20;24.23;;;;;;;18.53;37.18;99906.63;31633750;28;20036;-55
2020/12/03 12:41:04;;;;;;;34.90;23.70;;;;;;;18.60;36.91;99881.38;31638815;28;20028;-52
2020/12/03 12:56:05;;;;;;;34.47;23.17;;;;;;;18.28;38.27;99859.94;31653461;28;20028;-57
2020/12/03 13:11:05;;;;;;;36.70;24.73;;;;;;;17.27;35.35;99849.22;31667153;28;20301;-59
2020/12/03 13:26:11;;;;;;;33.17;22.80;;;;;;;18.29;35.92;99832.69;31619738;28;20051;-57
2020/12/03 13:41:19;;;;;;;28.83;20.60;;;;;;;18.73;35.77;99822.25;31647279;28;20044;-60
2020/12/03 13:56:20;;;;;;;30.00;20.65;;;;;;;18.72;36.43;99824.06;31639341;28;20017;-59
2020/12/03 14:11:21;;;;;;;34.42;24.60;;;;;;;17.92;35.34;99813.38;31638467;28;20032;-55
2020/12/03 14:26:22;;;;;;;31.27;23.15;;;;;;;18.10;36.31;99799.44;31615162;28;20040;-56
2020/12/03 14:41:23;;;;;;;28.90;21.05;;;;;;;18.33;36.33;99791.97;31647236;28;20036;-59
2020/12/03 14:56:24;;;;;;;26.63;20.35;;;;;;;18.49;36.53;99783.38;31651447;28;20040;-59
2020/12/03 15:11:26;;;;;;;28.60;20.42;;;;;;;18.37;36.51;99745.94;31666368;28;20031;-61
2020/12/03 15:26:27;;;;;;;25.23;19.38;;;;;;;18.26;37.40;99733.84;31640790;28;20033;-63
2020/12/03 15:41:28;;;;;;;24.77;18.95;;;;;;;18.27;37.72;99716.25;31637909;28;20040;-61
2020/12/03 15:56:29;;;;;;;22.97;17.53;;;;;;;18.51;37.65;99687.53;31666647;28;20032;-62
2020/12/03 16:11:30;;;;;;;22.03;18.07;;;;;;;18.66;37.60;99677.25;31665519;28;20701;-63
2020/12/03 16:26:31;;;;;;;22.80;16.50;;;;;;;18.58;37.71;99659.63;31657409;28;20293;-60
2020/12/03 16:41:32;;;;;;;21.83;16.52;;;;;;;18.45;38.54;99629.44;31670380;27;20289;-62
2020/12/03 16:56:33;;;;;;;20.27;16.40;;;;;;;18.33;39.05;99618.34;31645499;28;20042;-62
2020/12/03 17:11:35;;;;;;;27.88;19.42;;;;;;;18.14;35.89;99600.91;31616779;28;20717;-59
2020/12/03 17:26:36;;;;;;;23.45;18.38;;;;;;;18.32;37.04;99596.44;31627610;28;20093;-61
2020/12/03 17:41:37;;;;;;;21.90;16.63;;;;;;;18.50;37.66;99603.47;31639517;28;20097;-58
2020/12/03 17:57:06;;;;;;;23.25;17.45;;;;;;;18.39;36.88;99594.03;31642295;28;20343;-59
2020/12/03 18:12:07;;;;;;;24.88;18.67;;;;;;;17.83;35.18;99593.44;31608119;28;20070;-60
2020/12/03 18:27:08;;;;;;;24.92;18.60;;;;;;;17.72;37.04;99593.63;31623381;28;20032;-60
2020/12/03 18:42:12;;;;;;;28.52;20.98;;;;;;;17.42;35.01;99587.78;31640487;28;20055;-60
2020/12/03 18:57:12;;;;;;;21.38;16.25;;;;;;;17.35;37.24;99579.66;31539462;28;20045;-59
2020/12/03 19:12:13;;;;;;;24.58;17.70;;;;;;;17.30;37.33;99570.59;31502874;28;20032;-60
2020/12/03 19:27:14;;;;;;;22.42;17.65;;;;;;;17.41;36.67;99557.25;31502121;28;20049;-60
2020/12/03 19:42:15;;;;;;;26.48;18.77;;;;;;;17.60;35.51;99537.88;31607457;28;20040;-59
2020/12/03 19:57:16;;;;;;;24.05;17.95;;;;;;;17.56;34.53;99533.88;31559898;28;20061;-59
2020/12/03 20:12:17;;;;;;;25.15;17.73;;;;;;;17.66;35.40;99518.88;31613803;28;20035;-59
2020/12/03 20:27:18;;;;;;;24.48;16.95;;;;;;;18.42;35.00;99509.53;31605729;28;20032;-57
2020/12/03 20:42:19;;;;;;;26.40;19.70;;;;;;;18.51;31.95;99484.91;31585499;28;20039;-63
2020/12/03 20:57:21;;;;;;;23.73;18.40;;;;;;;18.42;32.72;99472.72;31592582;28;20801;-63
2020/12/03 21:12:22;;;;;;;24.70;18.23;;;;;;;18.19;33.13;99457.47;31602751;28;20294;-61
2020/12/03 21:27:23;;;;;;;23.08;17.52;;;;;;;18.15;33.90;99447.44;31587377;28;20448;-62
2020/12/03 21:42:24;;;;;;;24.77;17.10;;;;;;;18.02;34.84;99441.75;31599329;28;20044;-61
2020/12/03 21:57:25;;;;;;;22.17;16.70;;;;;;;17.84;37.09;99424.22;31594088;28;20036;-61
2020/12/03 22:12:26;;;;;;;28.27;18.52;;;;;;;17.69;38.39;99408.19;31586348;28;20309;-59
2020/12/03 22:27:27;;;;;;;27.63;18.50;;;;;;;17.49;39.48;99396.25;31580255;28;20398;-62
2020/12/03 22:42:28;;;;;;;28.08;19.15;;;;;;;17.28;39.48;99380.81;31581477;28;20040;-59
2020/12/03 22:57:29;;;;;;;33.47;20.67;;;;;;;16.98;39.57;99346.13;31584084;28;20048;-59
2020/12/03 23:12:30;;;;;;;30.58;20.80;;;;;;;16.89;39.68;99315.53;31563610;28;20301;-60
2020/12/03 23:27:31;;;;;;;30.67;19.20;;;;;;;16.82;39.57;99289.06;31540065;28;20036;-58
2020/12/03 23:42:32;;;;;;;28.73;20.48;;;;;;;16.84;39.71;99284.50;31621360;28;20520;-58
2020/12/03 23:57:33;;;;;;;29.10;19.17;;;;;;;16.85;39.30;99267.78;31624383;28;20038;-57
